createdAt,value
2022-11-30T09:49:39.626Z,0.9
2022-11-30T09:54:40.334Z,0.9
2022-11-30T09:59:39.635Z,0.8
2022-11-30T10:04:39.764Z,0.8
2022-11-30T10:09:40.384Z,0.9
2022-11-30T10:14:40.095Z,0.9
2022-11-30T10:19:39.652Z,0.9
2022-11-30T10:24:40.001Z,0.9
2022-11-30T10:29:40.209Z,0.8
2022-11-30T10:34:39.780Z,0.8
2022-11-30T10:39:41.265Z,0.4
2022-11-30T10:44:40.488Z,0.4
2022-11-30T10:49:40.104Z,0.4
2022-11-30T10:54:40.433Z,0.4
2022-11-30T10:59:39.956Z,0.4
2022-11-30T11:04:40.383Z,0.4
2022-11-30T11:09:40.181Z,0.4
2022-11-30T11:14:39.831Z,0.4
2022-11-30T11:19:40.147Z,0.4
2022-11-30T11:24:40.428Z,0.4
2022-11-30T11:29:39.789Z,0.4
2022-11-30T11:34:40.092Z,0.4
2022-11-30T11:39:40.286Z,0.9
2022-11-30T11:44:40.642Z,0.9
2022-11-30T11:49:40.124Z,0.7
2022-11-30T11:54:40.353Z,0.7
2022-11-30T11:59:39.814Z,0.4
2022-11-30T12:04:40.316Z,0.4
2022-11-30T12:09:39.650Z,0.9
2022-11-30T12:14:39.972Z,0.9
2022-11-30T12:19:40.171Z,0.7
2022-11-30T12:24:40.313Z,0.7
2022-11-30T12:29:40.556Z,0.4
2022-11-30T12:34:39.764Z,0.4
2022-11-30T12:39:40.088Z,0.9
2022-11-30T12:44:42.872Z,0.9
2022-11-30T12:49:40.103Z,0.4
2022-11-30T12:54:40.343Z,0.4
2022-11-30T12:59:40.426Z,0.4
2022-11-30T13:04:39.714Z,0.4
2022-11-30T13:09:39.957Z,0.4
2022-11-30T13:14:39.872Z,0.4
2022-11-30T13:19:40.220Z,0.9
2022-11-30T13:24:40.420Z,0.9
2022-11-30T13:29:40.815Z,0.6
2022-11-30T13:34:40.393Z,0.6
2022-11-30T13:39:40.652Z,0.4
2022-11-30T13:44:39.930Z,0.4
2022-11-30T13:49:40.122Z,0.6
2022-11-30T13:54:40.396Z,0.6
2022-11-30T13:59:40.595Z,0.4
2022-11-30T14:04:40.424Z,0.4
2022-11-30T14:09:40.748Z,0.2
2022-11-30T14:14:46.362Z,0.2
2022-11-30T14:19:40.130Z,0.4
2022-11-30T14:24:40.494Z,0.4
2022-11-30T14:29:40.408Z,0.5
2022-11-30T14:34:40.615Z,0.5
2022-11-30T14:39:39.892Z,0.4
2022-11-30T14:44:40.196Z,0.4
2022-11-30T14:49:40.749Z,0.9
2022-11-30T14:54:39.885Z,0.9
2022-11-30T14:59:40.673Z,0.9
2022-11-30T15:04:40.558Z,0.9
2022-11-30T15:09:39.979Z,0.5
2022-11-30T15:14:40.554Z,0.5
2022-11-30T15:19:40.454Z,0.4
2022-11-30T15:24:39.838Z,0.4
2022-11-30T15:29:40.699Z,0.4
2022-11-30T15:34:40.360Z,0.4
2022-11-30T15:39:40.688Z,0.4
2022-11-30T15:44:40.587Z,0.4
2022-11-30T15:49:40.382Z,0.4
2022-11-30T15:54:40.457Z,0.4
2022-11-30T15:59:40.655Z,0.4
2022-11-30T16:04:40.643Z,0.4
2022-11-30T16:09:40.415Z,0.4
2022-11-30T16:14:40.533Z,0.4
2022-11-30T16:19:40.477Z,0.4
2022-11-30T16:24:40.317Z,0.4
2022-11-30T16:29:39.894Z,0.4
2022-11-30T16:34:40.425Z,0.4
2022-11-30T16:39:39.863Z,0.4
2022-11-30T16:44:40.296Z,0.4
2022-11-30T16:49:40.595Z,0.3
2022-11-30T16:54:40.195Z,0.3
2022-11-30T16:59:40.483Z,0.4
2022-11-30T17:04:39.913Z,0.4
2022-11-30T17:09:40.257Z,0
2022-11-30T17:14:40.783Z,0
2022-11-30T17:19:40.308Z,0.4
2022-11-30T17:24:40.608Z,0.4
2022-11-30T17:29:39.855Z,0.4
2022-11-30T17:34:40.208Z,0.4
2022-11-30T17:39:40.462Z,0.4
2022-11-30T17:44:40.803Z,0.4
2022-11-30T17:49:40.166Z,0.4
2022-11-30T17:54:40.509Z,0.4
2022-11-30T17:59:39.920Z,0.4
2022-11-30T18:04:40.166Z,0.4
2022-11-30T18:09:43.301Z,0.4
2022-11-30T18:14:40.588Z,0.4
2022-11-30T18:19:39.962Z,0.4
2022-11-30T18:24:40.272Z,0.4
2022-11-30T18:29:40.631Z,0.4
2022-11-30T18:34:40.938Z,0.4
2022-11-30T18:39:40.266Z,0.4
2022-11-30T18:44:40.629Z,0.4
2022-11-30T18:49:40.847Z,0.4
